Time;durP1;ratioP1;P1;durP2;ratioP2;P2;SDS_P1;SDS_P2;PMS_P1;PMS_P2;Temp;Humidity;BMP_temperature;BMP_pressure;BME280_temperature;BME280_humidity;BME280_pressure;Samples;Min_cycle;Max_cycle;Signal;HPM_P1;HPM_P2
2023/06/27 00:03:18;;;;;;;2.50;2.40;;;;;;;18.40;79.03;98921.10;431016;1271;139686;-68
2023/06/27 00:13:42;;;;;;;4.50;3.30;;;;;;;18.34;80.50;98920.64;430838;1273;140481;-68
2023/06/27 00:24:07;;;;;;;3.20;2.90;;;;;;;18.29;81.55;98920.10;430860;1270;139698;-69
2023/06/27 00:34:31;;;;;;;5.10;3.80;;;;;;;18.17;82.50;98910.42;431281;1267;139127;-68
2023/06/27 00:44:55;;;;;;;4.00;3.60;;;;;;;18.11;83.61;98896.57;430539;1273;140065;-67
2023/06/27 00:55:21;;;;;;;5.30;4.90;;;;;;;18.10;85.00;98866.05;430807;1269;139281;-66
2023/06/27 01:05:45;;;;;;;7.10;5.70;;;;;;;18.11;85.71;98821.16;431308;1272;139188;-68
2023/06/27 01:16:10;;;;;;;6.10;5.50;;;;;;;18.06;86.51;98795.09;432164;1269;139880;-68
2023/06/27 01:26:35;;;;;;;7.20;6.50;;;;;;;18.06;87.62;98806.98;431453;1272;139752;-68
2023/06/27 01:37:05;;;;;;;5.80;5.30;;;;;;;18.00;88.43;98852.90;431369;1273;139771;-66
2023/06/27 01:47:30;;;;;;;11.20;9.70;;;;;;;17.91;89.16;98849.20;430912;1271;139650;-68
2023/06/27 01:57:53;;;;;;;10.50;5.90;;;;;;;17.74;90.01;98843.86;431167;1271;139210;-67
2023/06/27 02:08:17;;;;;;;6.90;4.40;;;;;;;17.66;90.30;98855.59;430729;1271;140620;-67
2023/06/27 02:18:42;;;;;;;5.40;4.90;;;;;;;17.63;90.44;98839.04;431050;1273;140774;-69
2023/06/27 02:29:06;;;;;;;6.80;6.20;;;;;;;17.53;90.65;98839.73;431151;1273;139233;-68
2023/06/27 02:39:30;;;;;;;8.30;7.60;;;;;;;17.45;91.40;98846.05;431191;1273;140130;-67
2023/06/27 02:49:54;;;;;;;10.30;9.30;;;;;;;17.42;92.24;98845.88;431508;1273;139083;-68
2023/06/27 03:00:19;;;;;;;13.30;12.00;;;;;;;17.43;93.00;98837.83;431135;1273;139244;-68
2023/06/27 03:10:43;;;;;;;13.30;12.00;;;;;;;17.45;93.75;98837.04;431158;1273;140280;-69
2023/06/27 03:21:07;;;;;;;12.50;11.20;;;;;;;17.61;94.20;98846.70;431291;1271;140758;-68
2023/06/27 03:31:31;;;;;;;11.30;10.20;;;;;;;17.74;94.28;98855.09;431974;1268;140222;-68
2023/06/27 03:41:55;;;;;;;7.20;6.20;;;;;;;17.74;93.20;98873.02;431303;1273;140097;-68
2023/06/27 03:52:19;;;;;;;9.10;5.10;;;;;;;17.56;90.40;98871.60;430905;1273;139794;-67
2023/06/27 04:02:43;;;;;;;6.60;5.90;;;;;;;17.50;89.75;98897.36;430875;1271;139049;-67
2023/06/27 04:13:07;;;;;;;6.60;6.00;;;;;;;17.51;90.13;98903.86;430900;1272;139768;-67
2023/06/27 04:23:31;;;;;;;8.80;6.70;;;;;;;17.60;90.05;98904.50;430711;1273;140928;-68
2023/06/27 04:33:59;;;;;;;8.10;6.40;;;;;;;17.76;89.31;98924.30;431011;1272;139248;-69
2023/06/27 04:44:24;;;;;;;10.90;6.50;;;;;;;17.81;88.33;98944.48;432022;1271;139840;-75
2023/06/27 04:54:50;;;;;;;7.10;5.00;;;;;;;17.74;87.11;98935.95;430911;1273;140054;-71
2023/06/27 05:05:15;;;;;;;6.50;4.90;;;;;;;18.03;85.84;98955.64;430929;1270;139023;-76
2023/06/27 05:15:39;;;;;;;7.50;3.70;;;;;;;17.88;84.27;98971.19;433773;1270;140928;-72
2023/06/27 05:26:03;;;;;;;7.30;4.10;;;;;;;17.70;83.88;98990.74;433950;1271;139524;-77
2023/06/27 05:36:27;;;;;;;6.10;3.80;;;;;;;18.09;83.38;98981.02;433656;1272;140244;-73
2023/06/27 05:46:51;;;;;;;5.50;3.40;;;;;;;19.59;80.72;98983.39;433775;1273;139093;-74
2023/06/27 05:57:15;;;;;;;7.10;3.30;;;;;;;21.10;77.34;98995.45;433809;1272;140959;-74
2023/06/27 06:07:44;;;;;;;4.10;2.70;;;;;;;20.60;74.57;99000.12;434331;1272;139741;-72
2023/06/27 06:18:08;;;;;;;8.20;3.20;;;;;;;20.44;74.02;98994.70;433657;1271;139602;-71
2023/06/27 06:28:32;;;;;;;3.90;2.20;;;;;;;20.42;72.34;99000.61;431822;1267;139211;-70
2023/06/27 06:38:58;;;;;;;5.30;2.10;;;;;;;20.08;71.47;99005.50;433680;1272;139153;-71
2023/06/27 06:49:22;;;;;;;8.60;2.10;;;;;;;24.34;67.66;99009.54;433557;1272;139685;-73
2023/06/27 06:59:46;;;;;;;5.40;2.40;;;;;;;27.70;58.65;99009.97;433846;1273;138912;-72
2023/06/27 07:10:11;;;;;;;4.30;2.60;;;;;;;26.61;51.49;99016.55;431951;1272;138632;-69
2023/06/27 07:20:34;;;;;;;4.10;1.80;;;;;;;26.41;51.15;99025.20;431533;1273;140079;-71
2023/06/27 07:30:58;;;;;;;4.40;1.30;;;;;;;25.58;50.39;99034.55;431473;1273;159860;-69
2023/06/27 07:41:22;;;;;;;3.10;1.60;;;;;;;28.30;49.14;99030.88;434500;1271;138960;-70
2023/06/27 07:51:51;;;;;;;4.50;1.60;;;;;;;35.48;41.56;99014.84;431871;1272;138595;-69
2023/06/27 08:02:14;;;;;;;2.00;1.30;;;;;;;33.87;37.07;99003.96;434526;1270;138947;-72
2023/06/27 08:12:38;;;;;;;2.80;1.40;;;;;;;29.53;37.81;98998.05;431373;1271;138771;-73
2023/06/27 08:23:02;;;;;;;3.70;2.40;;;;;;;27.20;38.90;99001.95;431579;1272;138995;-71
2023/06/27 08:33:26;;;;;;;3.10;1.70;;;;;;;26.96;38.79;98999.16;432063;1270;138398;-72
2023/06/27 08:43:50;;;;;;;3.70;1.80;;;;;;;26.40;38.24;99000.16;433888;1271;139103;-74
2023/06/27 08:54:27;;;;;;;3.50;1.20;;;;;;;26.21;38.24;99005.75;433951;1271;139620;-70
2023/06/27 09:04:52;;;;;;;3.60;0.90;;;;;;;25.73;38.72;99008.45;433885;1272;139300;-77
2023/06/27 09:15:16;;;;;;;5.70;1.30;;;;;;;25.08;38.52;99018.14;433616;1270;139007;-72
2023/06/27 09:25:40;;;;;;;6.30;1.30;;;;;;;25.16;38.24;99029.55;433804;1268;138470;-75
2023/06/27 09:36:05;;;;;;;9.30;1.60;;;;;;;25.06;38.02;99034.55;434158;1272;138392;-79
2023/06/27 09:46:30;;;;;;;4.30;0.90;;;;;;;24.67;37.46;99034.77;434530;1268;138326;-74
2023/06/27 09:56:56;;;;;;;2.90;1.20;;;;;;;24.54;37.74;99035.33;433928;1267;139594;-69
2023/06/27 10:07:19;;;;;;;4.10;1.30;;;;;;;24.67;37.53;99045.41;435091;1267;140484;-68
2023/06/27 10:17:45;;;;;;;3.70;0.80;;;;;;;24.68;37.39;99046.54;430511;1272;140096;-68
2023/06/27 10:28:13;;;;;;;10.30;2.90;;;;;;;24.56;36.72;99044.85;432276;1272;138359;-71
2023/06/27 10:38:39;;;;;;;7.00;1.10;;;;;;;24.30;36.89;99048.92;433848;1267;139233;-75
2023/06/27 10:49:04;;;;;;;3.50;0.80;;;;;;;24.28;37.10;99034.75;434034;1270;138747;-69
2023/06/27 10:59:28;;;;;;;3.30;1.30;;;;;;;23.77;37.24;99036.46;434261;1272;138812;-72
2023/06/27 11:09:54;;;;;;;2.70;1.50;;;;;;;23.73;38.01;99034.83;433766;1268;138480;-73
2023/06/27 11:20:19;;;;;;;10.50;1.30;;;;;;;24.01;37.86;99031.88;433719;1271;139555;-71
2023/06/27 11:30:44;;;;;;;4.80;1.20;;;;;;;24.25;37.60;99031.23;433673;1267;139211;-75
2023/06/27 11:41:08;;;;;;;2.90;1.10;;;;;;;24.14;37.44;99022.61;434182;1267;138796;-67
2023/06/27 11:51:41;;;;;;;5.00;1.40;;;;;;;23.72;37.39;99022.36;434324;1267;138652;-80
2023/06/27 12:02:06;;;;;;;19.00;2.90;;;;;;;23.08;38.00;99015.84;433598;1273;138554;-69
2023/06/27 12:12:37;;;;;;;5.60;1.70;;;;;;;22.80;38.68;99017.31;431249;1267;140277;-71
2023/06/27 12:23:00;;;;;;;4.20;1.10;;;;;;;22.39;39.16;99017.20;434783;1272;138968;-69
2023/06/27 12:33:24;;;;;;;5.70;2.20;;;;;;;21.89;39.97;99024.41;434936;1267;138479;-78
2023/06/27 12:43:49;;;;;;;6.50;1.40;;;;;;;21.81;40.68;99030.13;435399;1270;140508;-79
2023/06/27 12:54:13;;;;;;;3.80;1.50;;;;;;;21.61;41.78;99031.13;438752;1267;138904;-78
2023/06/27 13:04:37;;;;;;;2.50;1.10;;;;;;;21.88;39.97;99032.25;439543;1272;137854;-78
2023/06/27 13:15:02;;;;;;;3.50;1.60;;;;;;;21.61;40.05;99026.65;434225;1269;138502;-79
2023/06/27 13:25:26;;;;;;;8.20;2.00;;;;;;;21.60;40.72;99024.80;434746;1270;139215;-78
2023/06/27 13:35:50;;;;;;;2.60;1.40;;;;;;;21.59;41.07;99020.51;434231;1272;138806;-79
2023/06/27 13:46:14;;;;;;;1.40;0.60;;;;;;;21.28;42.14;99012.95;434820;1272;138322;-79
2023/06/27 13:56:38;;;;;;;7.20;1.20;;;;;;;21.21;41.74;98996.90;434238;1267;138764;-77
2023/06/27 14:07:03;;;;;;;2.10;0.90;;;;;;;21.36;40.78;98996.21;434426;1268;138523;-78
2023/06/27 14:17:27;;;;;;;3.20;1.10;;;;;;;21.29;38.41;98995.59;434659;1268;138450;-79
2023/06/27 14:27:51;;;;;;;3.60;1.60;;;;;;;21.27;38.10;98991.73;434449;1268;138792;-78
2023/06/27 14:38:15;;;;;;;6.00;1.20;;;;;;;21.03;39.12;98986.09;434520;1267;139830;-77
2023/06/27 14:48:39;;;;;;;4.90;1.70;;;;;;;21.10;39.87;98981.84;434371;1267;140555;-79
2023/06/27 14:59:03;;;;;;;3.60;1.40;;;;;;;21.39;39.76;98979.59;433908;1267;138542;-77
2023/06/27 15:09:27;;;;;;;1.20;0.60;;;;;;;21.87;38.28;98968.46;434442;1270;139464;-78
2023/06/27 15:19:53;;;;;;;2.60;1.20;;;;;;;21.77;37.41;98959.80;434497;1270;138596;-78
2023/06/27 15:30:17;;;;;;;1.60;1.20;;;;;;;21.63;37.03;98965.98;434210;1270;143150;-79
2023/06/27 15:40:41;;;;;;;4.70;2.60;;;;;;;21.50;37.41;98960.91;434280;1269;138494;-78
2023/06/27 15:51:05;;;;;;;2.40;1.40;;;;;;;21.24;38.48;98972.71;434372;1267;139574;-77
2023/06/27 16:01:29;;;;;;;3.30;1.40;;;;;;;20.88;39.87;98977.04;434553;1270;139111;-77
2023/06/27 16:11:53;;;;;;;2.70;0.90;;;;;;;20.86;40.21;98977.83;433917;1267;139007;-78
2023/06/27 16:22:18;;;;;;;2.90;1.00;;;;;;;21.17;39.02;98977.88;434754;1267;139197;-77
2023/06/27 16:32:42;;;;;;;1.80;1.00;;;;;;;20.76;38.99;98971.83;434386;1270;139446;-77
2023/06/27 16:43:06;;;;;;;9.50;1.90;;;;;;;20.55;39.63;98955.90;435327;1271;138986;-77
2023/06/27 16:53:30;;;;;;;2.40;1.80;;;;;;;20.29;40.31;98956.83;434259;1270;138911;-78
2023/06/27 17:03:54;;;;;;;1.20;0.60;;;;;;;20.17;40.74;98968.63;434525;1267;140118;-76
2023/06/27 17:14:19;;;;;;;2.70;1.70;;;;;;;19.99;41.21;98975.13;434012;1267;139252;-77
2023/06/27 17:24:43;;;;;;;3.80;1.70;;;;;;;19.63;41.97;98979.61;434007;1267;139171;-77
2023/06/27 17:35:08;;;;;;;1.60;1.00;;;;;;;19.25;43.45;99000.50;433943;1267;138335;-77
2023/06/27 17:45:32;;;;;;;5.90;1.60;;;;;;;18.60;46.52;99028.97;434057;1270;139394;-77
2023/06/27 17:55:56;;;;;;;4.50;1.40;;;;;;;17.59;52.48;99045.13;433935;1267;139123;-78
2023/06/27 18:06:20;;;;;;;4.10;2.00;;;;;;;17.33;56.12;99050.91;433775;1267;139149;-78
2023/06/27 18:16:44;;;;;;;2.70;1.00;;;;;;;16.98;58.25;99054.41;433987;1270;138408;-78
2023/06/27 18:27:08;;;;;;;3.50;1.60;;;;;;;16.61;59.68;99050.54;434197;1271;138831;-77
2023/06/27 18:37:32;;;;;;;1.60;1.50;;;;;;;16.26;61.47;99050.49;433910;1267;139384;-77
2023/06/27 18:47:57;;;;;;;2.50;1.20;;;;;;;15.65;62.18;99049.36;433820;1270;139590;-76
2023/06/27 18:58:21;;;;;;;1.40;1.10;;;;;;;15.33;63.80;99056.05;434034;1267;139882;-76
2023/06/27 19:08:46;;;;;;;4.20;1.30;;;;;;;15.07;65.25;99052.21;434325;1267;139170;-77
2023/06/27 19:19:11;;;;;;;1.90;0.90;;;;;;;14.62;66.84;99051.45;433731;1270;140365;-68
2023/06/27 19:29:37;;;;;;;3.20;1.60;;;;;;;14.05;67.22;99065.96;430823;1270;148509;-64
2023/06/27 19:40:01;;;;;;;2.80;1.20;;;;;;;13.79;68.51;99068.89;431164;1267;139611;-64
2023/06/27 19:50:25;;;;;;;5.00;1.20;;;;;;;13.52;68.79;99078.30;431026;1270;139872;-63
2023/06/27 20:00:49;;;;;;;2.00;1.60;;;;;;;13.26;69.69;99089.07;431001;1271;139998;-63
2023/06/27 20:11:17;;;;;;;2.80;1.50;;;;;;;13.03;70.57;99093.09;431107;1267;139867;-62
2023/06/27 20:21:41;;;;;;;3.60;1.70;;;;;;;12.81;70.98;99105.73;430847;1272;140223;-63
2023/06/27 20:32:07;;;;;;;1.70;1.60;;;;;;;12.69;71.23;99110.77;431360;1272;139656;-63
2023/06/27 20:42:33;;;;;;;2.20;1.80;;;;;;;12.62;71.59;99108.65;432546;1272;140781;-64
2023/06/27 20:52:58;;;;;;;5.50;1.70;;;;;;;12.45;72.26;99107.72;431408;1268;139817;-62
2023/06/27 21:03:21;;;;;;;2.60;1.20;;;;;;;12.25;72.54;99100.36;431487;1267;140247;-64
2023/06/27 21:13:45;;;;;;;4.20;1.40;;;;;;;12.02;72.81;99095.79;431054;1272;141595;-66
2023/06/27 21:24:10;;;;;;;3.60;1.70;;;;;;;11.81;73.47;99095.07;431288;1268;141144;-63
2023/06/27 21:34:34;;;;;;;2.30;1.20;;;;;;;11.67;74.19;99087.91;431570;1272;140977;-63
2023/06/27 21:44:58;;;;;;;3.80;2.70;;;;;;;11.49;75.00;99088.41;432344;1272;140005;-63
2023/06/27 21:55:22;;;;;;;3.70;1.70;;;;;;;11.27;75.43;99093.36;431939;1273;139639;-64
2023/06/27 22:05:46;;;;;;;2.40;2.20;;;;;;;11.14;76.21;99100.81;432330;1268;140019;-64
2023/06/27 22:16:20;;;;;;;4.00;1.90;;;;;;;11.15;76.96;99101.95;432436;1272;141454;-63
2023/06/27 22:26:45;;;;;;;4.10;1.50;;;;;;;11.25;77.32;99105.63;432222;1267;139263;-64
2023/06/27 22:37:09;;;;;;;3.60;2.20;;;;;;;11.20;77.76;99105.59;431646;1272;139795;-64
2023/06/27 22:47:35;;;;;;;1.60;1.50;;;;;;;11.07;78.36;99100.92;431572;1272;139630;-64
2023/06/27 22:57:59;;;;;;;3.60;2.20;;;;;;;11.03;79.27;99100.70;430773;1267;140709;-64
2023/06/27 23:08:24;;;;;;;5.70;2.60;;;;;;;10.98;80.08;99103.41;430873;1268;141350;-65
2023/06/27 23:18:57;;;;;;;3.50;1.90;;;;;;;10.89;80.65;99093.83;431287;1268;140066;-64
2023/06/27 23:29:23;;;;;;;3.00;1.70;;;;;;;10.74;81.54;99090.02;431617;1271;139434;-64
2023/06/27 23:39:48;;;;;;;3.30;2.70;;;;;;;10.63;82.26;99086.98;431094;1272;140307;-64
2023/06/27 23:50:12;;;;;;;2.20;1.80;;;;;;;10.57;82.88;99082.36;431518;1272;139634;-64
